Huntsville Intl-Carl T Jones Field Information

FAA: HSV - ICAO: KHSV

Huntsville Intl-Carl T Jones Field (Airport) Location

State Alabama
County Madison
City Huntsville
Huntsville Intl-Carl T Jones Field (Airport) is 9 miles southwest of Huntsville, AL.
Latitude 34-38-13.9090N
Longitude 086-46-30.1950W
Elevation 628ft

Huntsville Intl-Carl T Jones Field METARs

METAR KHSV 262353Z 36005KT 10SM FEW250 01/M10 A3034 RMK AO2 SLP279 T00061100 10050 20000 53005
Altimeter 30.34"
Temperature 0.6°C (33.1°F)
Wind 360° at 5KT
Clouds few at 25,000ft
Visibility 10.0mi
Time observed: 2022-01-26T23:53:00Z

Huntsville Intl-Carl T Jones Field (Airport) Details

Status Operational
Activation May 1964
Ownership Public
Usage Public
Chart ATLANTA
ATC on-site Yes
Beacon schedule sunset-sunrise
Beacon color clear green

Huntsville Intl-Carl T Jones Field (Airport) Contacts

Owner HUNTSVILLE MADISON COUNTY
Owner address 1000 GLENN HEARN BLVD,, HUNTSVILLE, AL 35824
Owner phone 256-772-9395
Manager RICHARD TUCKER
Manager address 1000 GLENN HEARN BLVD,, BOX 20008, HUNTSVILLE, AL 35824
Manager phone 256-258-1955

Huntsville Intl-Carl T Jones Field Radio Frequencies

Huntsville Intl-Carl T Jones Field (Airport) Radio Frequencies

UNICOM 122.95
Common traffic advisory frequency (CTAF) 127.6